Time;durP1;ratioP1;P1;durP2;ratioP2;P2;SDS_P1;SDS_P2;PMS_P1;PMS_P2;Temp;Humidity;BMP_temperature;BMP_pressure;BME280_temperature;BME280_humidity;BME280_pressure;Samples;Min_cycle;Max_cycle;Signal;HPM_P1;HPM_P2
2022/08/13 00:00:29;;;;;;;3.60;3.10;;;21.50;63.80;;;20.46;52.37;99941.69;10286906;28;96539;-84
2022/08/13 00:05:34;;;;;;;4.75;3.25;;;21.60;63.90;;;20.56;52.50;99935.66;10271239;28;96973;-84
2022/08/13 00:10:45;;;;;;;3.92;3.17;;;21.70;64.10;;;20.65;52.86;99933.41;10257223;28;97052;-84
2022/08/13 00:15:49;;;;;;;4.80;3.80;;;21.80;64.30;;;20.68;52.63;99938.31;10254091;28;98448;-85
2022/08/13 00:20:59;;;;;;;5.30;4.80;;;21.80;64.50;;;20.67;52.87;99932.09;10278873;28;98478;-85
2022/08/13 00:26:03;;;;;;;4.97;4.40;;;21.80;64.80;;;20.66;53.54;99929.66;10255410;28;96885;-84
2022/08/13 00:31:06;;;;;;;6.13;4.25;;;21.80;65.10;;;20.64;53.53;99923.69;10298816;28;97029;-84
2022/08/13 00:36:14;;;;;;;6.38;4.68;;;21.80;65.30;;;20.58;54.26;99918.19;10302848;28;97780;-84
2022/08/13 00:41:41;;;;;;;4.88;4.38;;;21.80;65.70;;;20.58;54.28;99931.69;10309568;28;96565;-85
2022/08/13 00:52:30;;;;;;;4.97;4.47;;;21.80;66.10;;;20.66;54.48;99916.16;10296959;28;96525;-85
2022/08/13 00:57:35;;;;;;;5.30;4.30;;;21.80;66.30;;;20.69;54.63;99907.56;10301593;28;97486;-85
2022/08/13 01:02:54;;;;;;;5.10;4.60;;;21.90;66.40;;;20.66;54.50;99900.78;10282837;28;96763;-85
2022/08/13 01:07:59;;;;;;;5.00;4.55;;;21.90;66.50;;;20.62;54.96;99901.47;10292553;28;96632;-85
2022/08/13 01:13:07;;;;;;;4.75;4.32;;;21.80;66.70;;;20.55;55.29;99891.66;10291372;28;96594;-85
2022/08/13 01:18:13;;;;;;;5.57;4.80;;;21.80;66.90;;;20.49;55.34;99886.41;10281120;28;98791;-85
2022/08/13 01:23:17;;;;;;;6.38;5.10;;;21.70;67.30;;;20.43;55.80;99877.34;10238842;28;96757;-85
2022/08/13 01:28:38;;;;;;;4.88;4.47;;;21.60;67.70;;;20.40;56.30;99880.53;10258486;28;96530;-84
2022/08/13 01:33:55;;;;;;;5.15;4.60;;;21.60;67.90;;;20.36;56.20;99873.97;10274923;28;97188;-85
2022/08/13 01:39:05;;;;;;;5.07;4.57;;;21.60;67.90;;;20.32;55.84;99870.94;10225469;28;96929;-85
2022/08/13 01:44:25;;;;;;;5.70;4.30;;;21.50;67.90;;;20.26;56.46;99871.88;10287755;28;97137;-85
2022/08/13 01:55:14;;;;;;;5.03;4.53;;;21.40;68.50;;;20.09;57.20;99867.47;10267983;28;97296;-85
2022/08/13 02:00:21;;;;;;;4.68;4.25;;;21.30;68.70;;;20.01;57.16;99877.56;10287886;28;96584;-85
2022/08/13 02:05:30;;;;;;;5.15;4.63;;;21.20;68.90;;;19.96;57.27;99876.66;10266152;28;96598;-84
2022/08/13 02:10:54;;;;;;;5.78;4.85;;;21.20;69.20;;;19.85;57.56;99875.63;10276611;28;97222;-85
2022/08/13 02:15:57;;;;;;;5.53;5.03;;;21.10;69.50;;;19.73;57.80;99872.09;10289704;28;98737;-84
2022/08/13 02:21:03;;;;;;;5.80;5.15;;;21.00;69.90;;;19.61;58.29;99861.34;10296541;28;98975;-85
2022/08/13 02:26:23;;;;;;;5.50;4.68;;;20.80;70.30;;;19.47;58.69;99858.00;10334130;28;96425;-84
2022/08/13 02:31:34;;;;;;;5.82;5.18;;;20.70;70.70;;;19.37;58.96;99859.66;10281352;28;96818;-84
2022/08/13 02:36:58;;;;;;;8.57;4.93;;;20.60;71.10;;;19.26;59.28;99855.91;10289565;28;96557;-84
2022/08/13 02:42:22;;;;;;;7.20;5.47;;;20.50;71.40;;;19.18;59.80;99853.53;10290778;28;96760;-84
2022/08/13 02:47:27;;;;;;;6.93;4.75;;;20.40;71.60;;;19.12;59.83;99854.47;10273472;28;96811;-85
2022/08/13 02:52:46;;;;;;;6.27;5.43;;;20.40;71.70;;;19.10;59.61;99854.72;10296592;28;96813;-84
2022/08/13 02:58:00;;;;;;;6.00;5.03;;;20.40;71.80;;;19.07;59.80;99851.66;10261972;28;96670;-84
2022/08/13 03:03:04;;;;;;;6.63;5.40;;;20.30;71.90;;;19.05;59.88;99840.28;10271666;28;97173;-85
2022/08/13 03:08:13;;;;;;;;;;;20.30;71.90;;;19.12;60.35;99851.78;10290634;28;96446;-85
2022/08/13 03:13:40;;;;;;;8.93;6.32;;;20.30;72.70;;;19.08;59.89;99843.38;10241843;28;98489;-84
2022/08/13 03:18:47;;;;;;;6.97;6.28;;;20.30;71.80;;;19.08;60.61;99847.94;10254962;28;96915;-84
2022/08/13 03:23:55;;;;;;;8.23;6.05;;;20.30;72.10;;;19.05;60.29;99843.00;10294178;28;98712;-85
2022/08/13 03:29:01;;;;;;;6.70;6.03;;;20.30;72.20;;;19.01;60.60;99844.50;10265655;28;97123;-84
2022/08/13 03:34:06;;;;;;;6.32;5.57;;;20.20;72.40;;;18.95;61.06;99833.63;10272089;28;96536;-84
2022/08/13 03:39:09;;;;;;;6.90;5.30;;;20.20;72.70;;;18.92;60.62;99838.63;10277128;28;96564;-84
2022/08/13 03:44:16;;;;;;;6.30;5.63;;;20.10;72.80;;;18.89;60.63;99829.16;10289977;28;96640;-85
2022/08/13 03:49:24;;;;;;;7.88;5.80;;;20.20;72.90;;;18.90;61.23;99829.97;10281897;28;96686;-84
2022/08/13 03:54:30;;;;;;;9.50;5.90;;;20.10;73.10;;;18.92;60.70;99826.00;10295457;28;98997;-85
2022/08/13 03:59:34;;;;;;;8.60;5.20;;;20.20;73.10;;;18.92;61.15;99822.47;10252581;28;96542;-84
2022/08/13 04:04:50;;;;;;;6.55;5.47;;;20.10;73.20;;;18.94;61.20;99818.50;10248140;28;98659;-85
2022/08/13 04:09:54;;;;;;;8.50;5.90;;;20.20;73.50;;;18.95;61.33;99812.09;10296903;28;98638;-85
2022/08/13 04:14:59;;;;;;;6.72;5.05;;;20.20;73.60;;;18.99;61.75;99813.25;10244052;28;97698;-85
2022/08/13 04:20:10;;;;;;;7.55;5.10;;;20.20;73.90;;;19.04;62.15;99809.03;10277503;28;96639;-85
2022/08/13 04:25:15;;;;;;;6.75;5.18;;;20.30;74.20;;;19.03;62.18;99799.31;10282810;28;97631;-85
2022/08/13 04:30:41;;;;;;;5.63;4.93;;;20.20;74.20;;;19.05;62.04;99813.38;10295422;28;96768;-90
2022/08/13 04:35:46;;;;;;;7.63;5.13;;;20.20;74.30;;;19.03;62.02;99804.72;10285900;28;96628;-88
2022/08/13 04:41:01;;;;;;;5.97;5.38;;;20.20;74.40;;;19.05;62.01;99799.91;10300302;28;96680;-88
2022/08/13 04:46:05;;;;;;;6.28;5.50;;;20.20;74.50;;;19.09;62.07;99798.41;10281448;28;97290;-88
2022/08/13 04:51:08;;;;;;;7.43;5.50;;;20.30;74.90;;;19.23;62.81;99797.09;10273961;28;96624;-87
2022/08/13 04:56:12;;;;;;;9.80;5.72;;;20.40;75.50;;;19.37;63.10;99798.53;10316343;28;96652;-88
2022/08/13 05:01:21;;;;;;;8.20;5.40;;;20.50;75.80;;;19.49;63.52;99807.41;10264323;28;98096;-88
2022/08/13 05:06:45;;;;;;;7.13;4.97;;;20.70;75.90;;;19.67;63.13;99803.81;10290601;28;96639;-88
2022/08/13 05:11:55;;;;;;;6.28;5.68;;;20.80;75.70;;;19.80;62.98;99808.09;10268453;28;96538;-88
2022/08/13 05:17:07;;;;;;;6.30;5.70;;;21.00;75.70;;;19.95;62.67;99816.50;10290867;28;97468;-89
2022/08/13 05:22:15;;;;;;;7.03;6.18;;;21.10;75.70;;;20.07;62.47;99815.66;10271730;28;96669;-88
2022/08/13 05:27:32;;;;;;;7.50;6.18;;;21.20;75.50;;;20.24;62.04;99816.53;10294331;28;96531;-88
2022/08/13 05:32:43;;;;;;;6.57;5.75;;;21.40;75.10;;;20.38;61.96;99815.19;10291185;28;96591;-88
2022/08/13 05:37:53;;;;;;;6.53;5.85;;;21.60;74.90;;;20.57;61.43;99813.97;10270334;28;97396;-88
2022/08/13 05:43:19;;;;;;;6.88;5.63;;;21.70;74.50;;;20.72;60.74;99818.00;10282797;28;96606;-88
2022/08/13 05:48:26;;;;;;;14.63;6.88;;;21.90;73.80;;;20.80;60.11;99817.56;10270077;28;96702;-88
2022/08/13 05:53:33;;;;;;;12.40;6.05;;;22.00;73.50;;;20.89;59.88;99805.31;10288051;28;96711;-88
2022/08/13 05:58:56;;;;;;;10.88;6.32;;;22.20;73.20;;;21.09;59.64;99810.22;10266965;28;97454;-87
2022/08/13 06:04:01;;;;;;;8.80;6.10;;;22.30;72.60;;;21.30;58.99;99806.81;10282114;28;96638;-88
2022/08/13 06:09:25;;;;;;;6.65;5.90;;;22.60;72.20;;;21.50;58.41;99806.28;10290484;28;98500;-87
2022/08/13 06:14:35;;;;;;;9.48;6.10;;;22.70;71.80;;;21.70;57.43;99802.22;10254922;28;96803;-87
2022/08/13 06:19:43;;;;;;;6.95;5.75;;;22.90;71.20;;;21.89;57.09;99811.66;10278537;28;98513;-86
2022/08/13 06:24:52;;;;;;;8.57;5.85;;;23.10;71.00;;;22.11;57.00;99809.78;10267694;28;97104;-87
2022/08/13 06:29:58;;;;;;;6.35;5.45;;;23.30;70.70;;;22.33;56.19;99806.25;10290740;28;98243;-86
2022/08/13 06:35:05;;;;;;;7.90;6.00;;;23.50;70.20;;;22.53;55.50;99803.75;10269880;28;96662;-87
2022/08/13 06:40:15;;;;;;;9.18;6.38;;;23.70;69.70;;;22.68;55.14;99793.06;10294642;28;96555;-87
2022/08/13 06:45:37;;;;;;;5.93;5.32;;;23.90;69.20;;;22.91;54.29;99799.22;10301390;28;98057;-87
2022/08/13 06:50:44;;;;;;;7.63;5.78;;;24.10;68.70;;;23.06;53.33;99791.22;10256109;28;98138;-87
2022/08/13 06:55:51;;;;;;;8.23;5.60;;;24.30;67.50;;;23.22;52.66;99782.13;10301999;28;96535;-87
2022/08/13 07:01:24;;;;;;;11.18;5.80;;;24.40;66.90;;;23.31;52.22;99778.94;10284672;28;98682;-87
2022/08/13 07:06:28;;;;;;;6.43;5.80;;;24.60;66.20;;;23.47;51.77;99786.09;10277531;28;98598;-87
2022/08/13 07:11:32;;;;;;;8.52;5.63;;;24.70;66.00;;;23.62;52.25;99788.91;10298486;28;97832;-87
2022/08/13 07:16:44;;;;;;;6.97;5.78;;;24.80;66.10;;;23.84;51.70;99788.72;10280940;28;96731;-87
2022/08/13 07:21:48;;;;;;;6.63;5.97;;;25.00;66.10;;;24.01;51.32;99780.38;10265158;28;97403;-87
2022/08/13 07:26:59;;;;;;;5.30;4.80;;;25.20;65.60;;;24.23;50.53;99789.16;10275777;28;99990;-87
2022/08/13 07:32:06;;;;;;;9.20;5.67;;;25.40;64.90;;;24.40;49.91;99793.53;10288728;28;98339;-86
2022/08/13 07:37:09;;;;;;;5.90;5.30;;;25.60;64.60;;;24.57;49.63;99804.97;10291167;28;96598;-85
2022/08/13 07:42:16;;;;;;;5.78;5.18;;;25.70;64.10;;;24.71;48.83;99781.66;10242375;28;97877;-87
2022/08/13 07:47:33;;;;;;;7.85;5.50;;;25.90;63.50;;;24.87;48.79;99781.63;10277871;28;96654;-87
2022/08/13 07:52:58;;;;;;;6.43;5.38;;;26.00;63.40;;;25.01;47.19;99777.28;10293675;28;96654;-87
2022/08/13 07:58:02;;;;;;;5.88;5.18;;;26.10;62.10;;;25.13;47.09;99777.84;10278253;28;96594;-88
2022/08/13 08:03:06;;;;;;;6.47;5.63;;;26.30;61.90;;;25.26;46.55;99776.47;10280247;28;96597;-88
2022/08/13 08:08:13;;;;;;;5.95;5.35;;;26.40;61.40;;;25.34;46.06;99779.44;10286299;28;99641;-88
2022/08/13 08:13:34;;;;;;;7.22;5.97;;;26.50;60.50;;;25.46;45.26;99767.44;10270724;28;98536;-88
2022/08/13 08:18:37;;;;;;;8.27;5.72;;;26.70;60.60;;;25.59;44.93;99762.22;10274070;28;98867;-88
2022/08/13 08:24:03;;;;;;;8.38;5.70;;;26.80;59.60;;;25.67;44.49;99762.72;10265931;28;98612;-88
2022/08/13 08:29:23;;;;;;;8.88;5.10;;;26.90;59.30;;;25.81;44.21;99755.66;10275099;28;96490;-88
2022/08/13 08:34:28;;;;;;;6.05;5.40;;;27.00;59.20;;;25.88;43.63;99748.81;10271263;28;96612;-88
2022/08/13 08:44:58;;;;;;;8.95;5.93;;;27.20;58.40;;;26.06;43.87;99746.53;10302834;28;96770;-88
2022/08/13 08:50:03;;;;;;;9.75;8.10;;;27.30;58.50;;;26.26;43.91;99735.50;10278300;28;96678;-88
2022/08/13 08:55:10;;;;;;;7.70;7.00;;;27.50;58.50;;;26.38;43.77;99733.25;10278698;28;97487;-88
2022/08/13 09:00:24;;;;;;;8.02;5.20;;;27.60;58.20;;;26.54;42.77;99714.09;10277646;28;96588;-88
2022/08/13 09:05:31;;;;;;;6.47;5.20;;;27.70;57.60;;;26.56;42.37;99709.16;10293026;28;96629;-88
2022/08/13 09:10:48;;;;;;;8.77;7.47;;;27.80;57.50;;;26.74;42.58;99710.38;10308885;28;96511;-88
2022/08/13 09:15:52;;;;;;;6.75;6.05;;;27.90;57.70;;;26.90;42.07;99698.25;10307461;28;96641;-88
2022/08/13 09:20:55;;;;;;;10.60;7.10;;;28.10;57.20;;;27.12;42.14;99704.03;10263494;28;97804;-88
2022/08/13 09:25:58;;;;;;;8.43;6.20;;;28.30;57.30;;;27.11;41.82;99698.84;10277630;28;97192;-88
2022/08/13 09:31:01;;;;;;;10.38;8.80;;;28.40;56.90;;;27.20;41.72;99692.50;10251213;28;96665;-88
2022/08/13 09:36:09;;;;;;;12.30;9.23;;;28.50;56.60;;;27.29;41.22;99680.94;10249627;28;98397;-88
2022/08/13 09:41:33;;;;;;;13.77;9.90;;;28.60;56.40;;;27.49;41.24;99677.97;10279479;28;96573;-88
2022/08/13 09:46:39;;;;;;;11.63;7.75;;;28.70;56.30;;;27.61;40.72;99678.34;10278269;28;96658;-88
2022/08/13 09:51:44;;;;;;;13.10;10.63;;;28.80;55.80;;;27.66;40.49;99672.84;10294738;28;97163;-88
2022/08/13 09:57:04;;;;;;;8.50;7.03;;;28.90;55.70;;;27.72;40.04;99659.97;10298056;28;96936;-88
2022/08/13 10:02:09;;;;;;;8.20;5.90;;;28.90;55.30;;;27.63;39.65;99656.22;10262451;28;97115;-88
2022/08/13 10:07:19;;;;;;;12.43;5.78;;;28.90;54.60;;;27.74;39.56;99658.53;10292564;28;97353;-88
2022/08/13 10:12:23;;;;;;;6.45;5.80;;;29.00;54.60;;;27.74;39.27;99669.47;10266798;28;97510;-88
2022/08/13 10:17:51;;;;;;;6.80;6.18;;;29.10;54.50;;;27.79;39.23;99660.41;10292651;28;96695;-88
2022/08/13 10:22:56;;;;;;;5.90;5.30;;;29.00;54.30;;;27.79;39.37;99667.78;10271830;28;97039;-88
2022/08/13 10:28:00;;;;;;;7.65;5.70;;;29.10;54.40;;;27.77;39.16;99651.72;10275627;28;96985;-88
2022/08/13 10:33:04;;;;;;;6.50;5.68;;;29.10;54.30;;;27.70;39.31;99657.50;10275965;28;96648;-88
2022/08/13 10:38:14;;;;;;;6.07;5.45;;;29.10;54.20;;;27.61;38.95;99658.44;10307080;28;96856;-88
2022/08/13 10:43:22;;;;;;;6.82;5.25;;;28.90;54.00;;;27.44;39.50;99648.00;10260126;28;96554;-88
2022/08/13 10:48:27;;;;;;;6.47;5.10;;;28.80;54.00;;;27.45;39.09;99652.38;10310066;28;96669;-88
2022/08/13 10:59:03;;;;;;;10.55;4.97;;;28.70;53.90;;;27.39;38.82;99651.63;10277832;28;96503;-88
2022/08/13 11:04:06;;;;;;;6.63;5.40;;;28.60;53.90;;;27.40;39.52;99655.16;10283988;28;96645;-87
2022/08/13 11:09:10;;;;;;;6.75;5.28;;;28.60;54.10;;;27.45;39.12;99653.16;10268821;28;98262;-88
2022/08/13 11:14:29;;;;;;;5.13;4.63;;;28.60;53.90;;;27.47;38.33;99639.25;10255647;28;96560;-89
2022/08/13 11:19:45;;;;;;;5.10;4.30;;;28.70;53.60;;;27.38;37.73;99644.53;10260520;28;96459;-88
2022/08/13 11:25:00;;;;;;;4.70;4.03;;;28.60;53.10;;;27.38;37.64;99636.34;10274970;28;96749;-88
2022/08/13 11:30:23;;;;;;;4.90;4.18;;;28.60;52.90;;;27.36;37.00;99635.03;10252989;28;98285;-89
2022/08/13 11:35:41;;;;;;;7.00;3.80;;;28.50;52.30;;;27.32;36.75;99626.63;10256467;28;97467;-89
2022/08/13 11:40:58;;;;;;;4.10;3.70;;;28.50;52.10;;;27.34;36.17;99629.03;10284992;28;96595;-89
2022/08/13 11:46:03;;;;;;;6.32;3.55;;;28.40;51.30;;;27.42;36.07;99621.03;10273539;28;96551;-88
2022/08/13 11:51:05;;;;;;;3.38;2.90;;;28.50;51.40;;;27.61;36.01;99620.22;10273599;28;96661;-88
2022/08/13 11:56:09;;;;;;;4.10;3.70;;;28.60;51.30;;;27.81;35.67;99614.50;10289608;28;96461;-87
2022/08/13 12:01:18;;;;;;;4.55;3.15;;;28.90;50.70;;;27.96;34.67;99611.53;10273431;28;96613;-86
2022/08/13 12:06:27;;;;;;;4.35;3.17;;;29.00;49.70;;;28.06;34.21;99620.66;10287871;28;96670;-87
2022/08/13 12:11:34;;;;;;;5.15;3.50;;;29.10;49.50;;;28.09;34.23;99603.69;10279765;28;96583;-88
2022/08/13 12:16:58;;;;;;;3.22;2.92;;;29.10;49.30;;;28.19;34.61;99604.34;10288619;28;97506;-86
2022/08/13 12:22:03;;;;;;;4.57;4.07;;;29.20;49.90;;;28.28;34.23;99599.00;10246768;28;97358;-84
2022/08/13 12:27:08;;;;;;;3.92;3.20;;;29.30;49.60;;;28.38;33.74;99600.78;10296290;28;97009;-84
2022/08/13 12:32:11;;;;;;;3.58;3.28;;;29.40;49.00;;;28.41;33.94;99584.59;10292765;28;96710;-84
2022/08/13 12:37:16;;;;;;;4.05;3.65;;;29.40;49.00;;;28.44;34.19;99584.00;10278100;28;96526;-83
2022/08/13 12:42:27;;;;;;;4.53;3.58;;;29.40;49.30;;;28.53;33.89;99576.72;10279417;28;96575;-83
2022/08/13 12:47:30;;;;;;;4.85;3.17;;;29.50;49.20;;;28.61;33.60;99571.66;10294190;28;96557;-84
2022/08/13 12:52:33;;;;;;;4.47;3.03;;;29.70;49.00;;;28.72;33.22;99584.81;10300626;28;97342;-84
2022/08/13 12:57:38;;;;;;;3.22;2.92;;;29.70;48.80;;;28.84;33.40;99581.59;10294800;28;96652;-85
2022/08/13 13:03:01;;;;;;;2.70;2.50;;;29.90;48.60;;;28.94;33.13;99570.47;10276086;28;97137;-87
2022/08/13 13:08:18;;;;;;;3.05;2.75;;;30.00;48.50;;;29.00;32.42;99572.00;10286845;28;97619;-86
2022/08/13 13:13:35;;;;;;;3.45;3.15;;;30.10;48.10;;;28.99;32.22;99572.31;10278421;28;97029;-86
2022/08/13 13:18:58;;;;;;;3.40;3.10;;;30.00;47.60;;;29.03;32.55;99565.94;10262628;28;97683;-88
2022/08/13 13:24:04;;;;;;;4.13;3.72;;;30.00;47.80;;;29.02;32.15;99556.09;10277547;28;98230;-86
2022/08/13 13:29:20;;;;;;;3.10;2.80;;;30.00;47.60;;;28.99;32.61;99553.16;10273907;28;97460;-86
2022/08/13 13:34:23;;;;;;;5.53;3.15;;;30.00;47.60;;;28.97;32.38;99544.47;10302868;28;97709;-86
2022/08/13 13:39:27;;;;;;;3.40;3.10;;;30.00;47.60;;;29.00;32.89;99541.09;10302974;28;96516;-86
2022/08/13 13:44:31;;;;;;;3.60;3.30;;;30.00;48.10;;;29.02;32.89;99539.66;10318960;28;96573;-86
2022/08/13 13:49:41;;;;;;;3.70;3.30;;;30.00;48.30;;;29.27;33.39;99523.84;10277543;28;96594;-86
2022/08/13 13:54:46;;;;;;;4.05;3.03;;;30.20;48.80;;;29.38;32.29;99530.69;10271424;28;96531;-86
2022/08/13 13:59:59;;;;;;;9.02;3.55;;;30.40;48.10;;;29.33;32.42;99525.34;10239672;28;96520;-86
2022/08/13 14:05:07;;;;;;;4.38;3.47;;;30.30;48.00;;;29.15;32.49;99527.13;10270983;28;96694;-87
2022/08/13 14:10:25;;;;;;;3.67;3.00;;;30.20;48.00;;;29.04;32.43;99526.53;10279744;28;97600;-86
2022/08/13 14:15:33;;;;;;;5.90;3.35;;;30.10;47.90;;;29.00;33.27;99514.56;10260794;28;97698;-85
2022/08/13 14:20:46;;;;;;;;;;;30.10;48.10;;;28.84;32.95;99515.16;10270462;28;97188;-84
2022/08/13 14:25:51;;;;;;;6.47;3.33;;;29.90;48.00;;;29.02;33.36;99514.25;10292358;28;96619;-84
2022/08/13 14:30:58;;;;;;;3.40;2.90;;;30.00;48.60;;;29.30;32.57;99509.53;10290821;28;97464;-84
2022/08/13 14:36:01;;;;;;;3.70;3.40;;;30.30;48.30;;;29.67;32.03;99497.44;10235504;28;96596;-83
2022/08/13 14:41:09;;;;;;;4.30;3.50;;;30.60;47.70;;;29.86;31.69;99502.72;10255468;28;96553;-84
2022/08/13 14:46:19;;;;;;;4.47;3.63;;;30.80;47.30;;;30.06;31.56;99484.97;10276382;28;96558;-84
2022/08/13 14:51:27;;;;;;;7.38;3.72;;;31.00;47.30;;;30.12;30.95;99481.00;10288725;28;97130;-84
2022/08/13 14:56:30;;;;;;;5.35;3.17;;;31.10;46.80;;;30.11;30.87;99477.47;10262582;28;97039;-83
2022/08/13 15:01:35;;;;;;;4.82;3.22;;;31.10;46.70;;;29.96;30.98;99477.03;10248768;28;98432;-83
2022/08/13 15:06:44;;;;;;;4.50;3.20;;;30.90;46.40;;;29.95;30.65;99461.72;10286008;28;96927;-85
2022/08/13 15:11:47;;;;;;;3.63;3.10;;;30.90;46.30;;;30.03;30.33;99460.94;10272395;28;98785;-84
2022/08/13 15:16:54;;;;;;;2.88;2.58;;;30.90;46.20;;;30.11;30.40;99447.31;10265710;28;98339;-84
2022/08/13 15:21:58;;;;;;;3.92;2.53;;;31.10;46.00;;;30.16;29.96;99451.84;10275789;28;97121;-82
2022/08/13 15:27:04;;;;;;;4.70;3.05;;;31.10;45.80;;;30.22;30.09;99449.78;10284660;28;97514;-82
2022/08/13 15:32:10;;;;;;;8.05;2.85;;;31.10;45.60;;;30.27;29.79;99447.69;10279657;28;97161;-82
2022/08/13 15:37:14;;;;;;;3.35;2.88;;;31.10;45.60;;;30.28;29.64;99445.75;10265690;28;98522;-83
2022/08/13 15:42:17;;;;;;;6.78;2.90;;;31.10;45.50;;;30.41;29.93;99439.38;10269415;28;96649;-82
2022/08/13 15:47:20;;;;;;;5.05;2.95;;;31.20;46.10;;;30.53;29.84;99450.53;10255597;28;97042;-82
2022/08/13 15:52:23;;;;;;;58.05;4.80;;;31.30;45.60;;;30.54;29.40;99446.66;10301143;28;97154;-82
2022/08/13 15:57:30;;;;;;;6.13;2.88;;;31.40;45.50;;;30.43;29.29;99447.28;10287830;28;96547;-84
2022/08/13 16:03:05;;;;;;;2.88;2.65;;;31.30;45.30;;;30.34;29.60;99447.22;10287878;28;98665;-84
2022/08/13 16:08:14;;;;;;;3.30;2.65;;;31.30;45.40;;;30.17;29.48;99441.69;10303379;28;96593;-83
2022/08/13 16:13:21;;;;;;;6.03;2.90;;;31.10;45.30;;;30.00;30.04;99451.44;10298559;28;96631;-84
2022/08/13 16:18:33;;;;;;;3.15;2.50;;;30.90;45.60;;;29.95;29.77;99437.88;10281150;28;96755;-83
2022/08/13 16:23:38;;;;;;;19.33;2.92;;;30.90;45.50;;;29.86;30.47;99431.53;10275567;28;98049;-83
2022/08/13 16:29:03;;;;;;;7.38;2.88;;;30.90;45.50;;;29.69;29.86;99439.63;10308098;28;96591;-84
2022/08/13 16:34:08;;;;;;;13.18;3.22;;;30.80;45.20;;;29.52;30.36;99443.09;10280486;28;98567;-83
2022/08/13 16:39:11;;;;;;;5.22;2.80;;;30.60;45.30;;;29.34;30.45;99447.59;10282512;28;98945;-84
2022/08/13 16:44:16;;;;;;;3.22;2.72;;;30.40;45.40;;;29.16;30.60;99437.66;10259877;28;96723;-84
2022/08/13 16:49:42;;;;;;;7.20;2.92;;;30.20;46.30;;;28.97;30.93;99449.56;10266705;28;96736;-84
2022/08/13 16:54:52;;;;;;;7.82;2.85;;;30.00;46.10;;;28.76;31.46;99438.22;10281194;28;96630;-83
2022/08/13 16:59:58;;;;;;;3.10;2.58;;;29.80;46.40;;;28.54;31.69;99441.66;10289412;28;98519;-84
2022/08/13 17:10:30;;;;;;;4.20;2.63;;;29.40;46.80;;;28.08;32.28;99444.50;10278358;28;96728;-84
2022/08/13 17:15:34;;;;;;;5.53;3.00;;;29.10;47.20;;;27.87;33.03;99440.50;10288823;28;99148;-84
2022/08/13 17:20:43;;;;;;;3.47;3.00;;;29.00;47.60;;;27.66;33.08;99449.03;10261630;28;97335;-84
2022/08/13 17:25:46;;;;;;;5.55;3.55;;;28.70;47.80;;;27.41;33.41;99447.53;10269854;28;97445;-84
2022/08/13 17:31:01;;;;;;;3.25;2.95;;;28.50;48.00;;;27.20;33.96;99447.03;10265157;28;97818;-84
2022/08/13 17:36:05;;;;;;;5.10;3.00;;;28.30;48.10;;;27.00;33.84;99450.03;10260773;28;97266;-84
2022/08/13 17:41:14;;;;;;;3.10;2.75;;;28.10;48.30;;;26.80;34.56;99458.47;10273150;28;97686;-84
2022/08/13 17:46:20;;;;;;;4.57;2.70;;;27.90;48.50;;;26.58;34.66;99451.69;10287551;28;98908;-84
2022/08/13 17:51:32;;;;;;;3.17;2.80;;;27.80;48.80;;;26.39;35.37;99454.31;10266275;28;96944;-84
2022/08/13 17:56:35;;;;;;;3.63;3.00;;;27.60;49.10;;;26.21;35.78;99470.56;10264774;28;97182;-84
2022/08/13 18:01:40;;;;;;;6.60;3.00;;;27.40;49.70;;;26.00;36.21;99469.97;10276973;28;97640;-84
2022/08/13 18:06:47;;;;;;;5.50;3.38;;;27.20;50.20;;;25.77;36.76;99464.19;10272014;28;98901;-85
2022/08/13 18:11:54;;;;;;;5.70;3.10;;;27.00;50.60;;;25.54;37.36;99481.22;10278420;28;98673;-83
2022/08/13 18:17:04;;;;;;;6.07;3.33;;;26.70;51.10;;;25.29;38.17;99483.03;10274192;28;99095;-83
2022/08/13 18:22:27;;;;;;;7.93;4.10;;;26.50;51.70;;;25.07;38.85;99486.19;10273442;28;96751;-83
2022/08/13 18:27:33;;;;;;;7.15;3.85;;;26.20;52.50;;;24.85;39.93;99499.31;10266314;28;98479;-83
2022/08/13 18:32:57;;;;;;;6.22;3.65;;;26.00;53.50;;;24.69;40.79;99506.69;10291695;28;98244;-83
2022/08/13 18:38:04;;;;;;;9.18;3.88;;;25.70;54.20;;;24.56;41.61;99501.84;10285117;28;96727;-83
2022/08/13 18:43:17;;;;;;;6.50;4.15;;;25.60;55.10;;;24.44;42.41;99506.78;10252465;28;98049;-83
2022/08/13 18:48:20;;;;;;;4.10;3.70;;;25.50;55.80;;;24.34;42.81;99517.63;10270343;28;96872;-83
2022/08/13 18:53:36;;;;;;;5.43;4.05;;;25.40;56.30;;;24.23;42.96;99511.41;10262740;28;97304;-83
2022/08/13 18:58:46;;;;;;;5.22;3.70;;;25.30;56.60;;;24.14;43.37;99522.00;10265598;28;97177;-83
2022/08/13 19:03:57;;;;;;;5.85;4.07;;;25.20;56.90;;;24.07;44.05;99524.19;10265722;28;98415;-83
2022/08/13 19:09:06;;;;;;;4.33;3.93;;;25.10;57.30;;;24.00;44.28;99518.25;10268929;28;97844;-83
2022/08/13 19:14:13;;;;;;;5.38;3.97;;;25.00;57.60;;;23.92;44.70;99516.88;10265996;28;96915;-83
2022/08/13 19:19:16;;;;;;;6.60;4.22;;;25.00;57.80;;;23.85;44.68;99520.94;10260913;28;98618;-83
2022/08/13 19:24:20;;;;;;;4.60;3.97;;;24.90;58.00;;;23.77;45.08;99517.69;10258805;28;96765;-83
2022/08/13 19:29:32;;;;;;;6.10;3.63;;;24.80;58.20;;;23.71;45.70;99528.81;10277051;28;98794;-83
2022/08/13 19:34:36;;;;;;;6.00;4.18;;;24.80;58.70;;;23.62;45.72;99517.66;10267436;28;96824;-83
2022/08/13 19:39:44;;;;;;;5.13;4.25;;;24.70;58.90;;;23.61;46.08;99520.63;10286865;28;96745;-83
2022/08/13 19:45:09;;;;;;;4.50;3.92;;;24.70;59.20;;;23.54;46.30;99520.91;10251242;28;98812;-84
2022/08/13 19:50:23;;;;;;;5.32;4.40;;;24.60;59.50;;;23.46;46.87;99529.56;10256130;28;97634;-84
2022/08/13 19:55:30;;;;;;;6.15;4.38;;;24.50;59.90;;;23.34;47.12;99520.88;10254431;28;96777;-84
2022/08/13 20:00:54;;;;;;;4.72;4.25;;;24.40;60.30;;;23.30;47.30;99525.19;10254559;28;97144;-84
2022/08/13 20:05:57;;;;;;;5.65;4.20;;;24.30;60.50;;;23.20;47.58;99512.41;10243124;28;96861;-84
2022/08/13 20:11:09;;;;;;;6.47;4.35;;;24.30;60.70;;;23.19;47.80;99524.34;10271082;28;96769;-84
2022/08/13 20:16:28;;;;;;;6.10;4.70;;;24.30;60.90;;;23.16;48.05;99517.56;10269891;28;98080;-83
2022/08/13 20:21:34;;;;;;;5.20;4.70;;;24.20;61.30;;;23.14;48.48;99522.44;10269744;28;96629;-86
2022/08/13 20:26:53;;;;;;;5.90;4.72;;;24.20;61.60;;;23.09;48.55;99513.47;10244826;28;98594;-84
2022/08/13 20:31:57;;;;;;;5.70;4.85;;;24.20;61.90;;;23.04;49.24;99511.59;10277397;28;97371;-84
2022/08/13 20:37:03;;;;;;;6.50;5.25;;;24.10;62.20;;;23.00;49.44;99526.72;10259498;28;97960;-83
2022/08/13 20:42:20;;;;;;;5.83;5.13;;;24.10;62.50;;;22.90;49.60;99519.38;10278529;28;98084;-84
2022/08/13 20:47:23;;;;;;;7.85;6.15;;;24.00;62.80;;;22.80;50.14;99513.91;10262039;28;96693;-85
2022/08/13 20:52:26;;;;;;;32.05;20.58;;;23.90;63.00;;;22.74;50.67;99522.28;10251381;28;97831;-85
2022/08/13 20:57:49;;;;;;;15.05;8.75;;;23.90;63.10;;;22.60;50.46;99521.91;10252044;28;98981;-85
2022/08/13 21:03:07;;;;;;;8.52;5.88;;;23.90;63.00;;;22.44;50.26;99519.16;10249854;28;98167;-85
2022/08/13 21:08:10;;;;;;;6.47;5.07;;;23.70;63.00;;;22.28;50.96;99532.84;10272586;28;96907;-85
2022/08/13 21:13:23;;;;;;;7.07;5.25;;;23.60;63.50;;;22.01;51.69;99530.16;10261537;28;98180;-85
2022/08/13 21:18:33;;;;;;;6.18;4.47;;;23.30;64.30;;;21.86;52.46;99533.59;10279742;28;98102;-85
2022/08/13 21:23:36;;;;;;;7.55;5.50;;;23.10;64.80;;;21.72;52.94;99521.56;10279395;28;98480;-85
2022/08/13 21:28:39;;;;;;;5.75;5.15;;;23.00;65.10;;;21.67;53.12;99524.22;10257820;28;98113;-84
2022/08/13 21:34:02;;;;;;;9.35;5.63;;;22.90;65.40;;;21.64;53.46;99523.66;10250820;28;98392;-84
2022/08/13 21:39:06;;;;;;;7.43;5.95;;;22.80;65.70;;;21.61;53.89;99535.00;10260199;28;97931;-85
2022/08/13 21:44:09;;;;;;;6.95;6.28;;;22.80;66.00;;;21.61;54.21;99529.59;10277220;28;97918;-84
2022/08/13 21:49:15;;;;;;;8.50;5.25;;;22.80;66.20;;;21.55;53.78;99519.78;10260498;28;96638;-84
2022/08/13 21:54:19;;;;;;;6.13;5.50;;;22.80;66.20;;;21.50;54.09;99527.03;10258653;28;97675;-86